sensor_id;sensor_type;location;lat;lon;timestamp;P1;durP1;ratioP1;P2;durP2;ratioP2
44165;SDS011;30476;53.468;9.826;2023-02-15T00:01:37;23.13;;;13.13;;
44165;SDS011;30476;53.468;9.826;2023-02-15T00:04:04;25.63;;;13.50;;
44165;SDS011;30476;53.468;9.826;2023-02-15T00:06:31;20.33;;;12.60;;
44165;SDS011;30476;53.468;9.826;2023-02-15T00:08:57;23.10;;;13.40;;
44165;SDS011;30476;53.468;9.826;2023-02-15T00:11:23;20.70;;;12.30;;
44165;SDS011;30476;53.468;9.826;2023-02-15T00:14:13;19.57;;;11.43;;
44165;SDS011;30476;53.468;9.826;2023-02-15T00:16:42;24.20;;;13.23;;
44165;SDS011;30476;53.468;9.826;2023-02-15T00:19:09;20.07;;;14.00;;
44165;SDS011;30476;53.468;9.826;2023-02-15T00:21:37;23.07;;;13.90;;
44165;SDS011;30476;53.468;9.826;2023-02-15T00:24:04;25.70;;;15.33;;
44165;SDS011;30476;53.468;9.826;2023-02-15T00:26:32;22.63;;;13.13;;
44165;SDS011;30476;53.468;9.826;2023-02-15T00:28:59;22.20;;;13.00;;
44165;SDS011;30476;53.468;9.826;2023-02-15T00:31:25;24.53;;;15.33;;
44165;SDS011;30476;53.468;9.826;2023-02-15T00:33:52;22.50;;;14.40;;
44165;SDS011;30476;53.468;9.826;2023-02-15T00:36:18;23.73;;;13.57;;
44165;SDS011;30476;53.468;9.826;2023-02-15T00:38:44;24.50;;;14.40;;
44165;SDS011;30476;53.468;9.826;2023-02-15T00:41:10;23.70;;;14.93;;
44165;SDS011;30476;53.468;9.826;2023-02-15T00:43:36;21.57;;;13.73;;
44165;SDS011;30476;53.468;9.826;2023-02-15T00:46:03;27.70;;;14.33;;
44165;SDS011;30476;53.468;9.826;2023-02-15T00:48:30;24.80;;;14.40;;
44165;SDS011;30476;53.468;9.826;2023-02-15T00:50:57;27.27;;;14.70;;
44165;SDS011;30476;53.468;9.826;2023-02-15T00:53:25;25.03;;;14.70;;
44165;SDS011;30476;53.468;9.826;2023-02-15T00:55:51;24.73;;;14.13;;
44165;SDS011;30476;53.468;9.826;2023-02-15T00:58:18;21.00;;;13.20;;
44165;SDS011;30476;53.468;9.826;2023-02-15T01:00:45;22.53;;;13.73;;
44165;SDS011;30476;53.468;9.826;2023-02-15T01:03:11;24.27;;;13.90;;
44165;SDS011;30476;53.468;9.826;2023-02-15T01:05:38;26.90;;;14.47;;
44165;SDS011;30476;53.468;9.826;2023-02-15T01:08:05;25.20;;;13.87;;
44165;SDS011;30476;53.468;9.826;2023-02-15T01:10:31;24.53;;;15.40;;
44165;SDS011;30476;53.468;9.826;2023-02-15T01:12:58;28.97;;;14.47;;
44165;SDS011;30476;53.468;9.826;2023-02-15T01:15:24;29.70;;;14.90;;
44165;SDS011;30476;53.468;9.826;2023-02-15T01:17:50;24.20;;;14.90;;
44165;SDS011;30476;53.468;9.826;2023-02-15T01:20:20;27.50;;;15.90;;
44165;SDS011;30476;53.468;9.826;2023-02-15T01:22:47;35.90;;;17.80;;
44165;SDS011;30476;53.468;9.826;2023-02-15T01:25:18;25.57;;;16.40;;
44165;SDS011;30476;53.468;9.826;2023-02-15T01:27:45;36.03;;;20.20;;
44165;SDS011;30476;53.468;9.826;2023-02-15T01:30:12;31.40;;;16.60;;
44165;SDS011;30476;53.468;9.826;2023-02-15T01:32:38;30.73;;;18.17;;
44165;SDS011;30476;53.468;9.826;2023-02-15T01:35:04;30.30;;;19.17;;
44165;SDS011;30476;53.468;9.826;2023-02-15T01:37:31;30.43;;;19.27;;
44165;SDS011;30476;53.468;9.826;2023-02-15T01:39:57;35.37;;;17.97;;
44165;SDS011;30476;53.468;9.826;2023-02-15T01:42:23;32.87;;;17.03;;
44165;SDS011;30476;53.468;9.826;2023-02-15T01:44:51;29.43;;;16.33;;
44165;SDS011;30476;53.468;9.826;2023-02-15T01:47:22;31.67;;;15.67;;
44165;SDS011;30476;53.468;9.826;2023-02-15T01:50:16;29.20;;;17.40;;
44165;SDS011;30476;53.468;9.826;2023-02-15T01:52:45;29.83;;;16.73;;
44165;SDS011;30476;53.468;9.826;2023-02-15T01:55:35;26.63;;;16.20;;
44165;SDS011;30476;53.468;9.826;2023-02-15T01:58:04;27.90;;;15.93;;
44165;SDS011;30476;53.468;9.826;2023-02-15T02:00:31;32.00;;;16.90;;
44165;SDS011;30476;53.468;9.826;2023-02-15T02:02:59;32.27;;;17.20;;
44165;SDS011;30476;53.468;9.826;2023-02-15T02:05:26;30.80;;;16.20;;
44165;SDS011;30476;53.468;9.826;2023-02-15T02:07:53;34.50;;;17.87;;
44165;SDS011;30476;53.468;9.826;2023-02-15T02:10:22;28.80;;;17.07;;
44165;SDS011;30476;53.468;9.826;2023-02-15T02:12:51;32.17;;;18.90;;
44165;SDS011;30476;53.468;9.826;2023-02-15T02:15:21;35.80;;;19.53;;
44165;SDS011;30476;53.468;9.826;2023-02-15T02:17:57;28.43;;;15.73;;
44165;SDS011;30476;53.468;9.826;2023-02-15T02:20:51;27.77;;;16.37;;
44165;SDS011;30476;53.468;9.826;2023-02-15T02:32:18;27.10;;;16.87;;
44165;SDS011;30476;53.468;9.826;2023-02-15T02:37:32;25.57;;;14.67;;
44165;SDS011;30476;53.468;9.826;2023-02-15T02:45:35;20.93;;;13.37;;
44165;SDS011;30476;53.468;9.826;2023-02-15T02:48:09;21.10;;;14.10;;
44165;SDS011;30476;53.468;9.826;2023-02-15T02:50:40;21.47;;;14.33;;
44165;SDS011;30476;53.468;9.826;2023-02-15T02:53:06;20.40;;;12.43;;
44165;SDS011;30476;53.468;9.826;2023-02-15T02:55:40;26.20;;;13.30;;
44165;SDS011;30476;53.468;9.826;2023-02-15T02:58:42;22.00;;;13.03;;
44165;SDS011;30476;53.468;9.826;2023-02-15T03:01:12;20.07;;;12.43;;
44165;SDS011;30476;53.468;9.826;2023-02-15T03:03:45;21.30;;;12.60;;
44165;SDS011;30476;53.468;9.826;2023-02-15T03:06:37;20.33;;;14.40;;
44165;SDS011;30476;53.468;9.826;2023-02-15T03:09:12;21.70;;;13.30;;
44165;SDS011;30476;53.468;9.826;2023-02-15T03:11:43;24.10;;;14.30;;
44165;SDS011;30476;53.468;9.826;2023-02-15T03:14:10;26.00;;;14.63;;
44165;SDS011;30476;53.468;9.826;2023-02-15T03:16:38;22.97;;;14.60;;
44165;SDS011;30476;53.468;9.826;2023-02-15T03:19:07;21.80;;;15.20;;
44165;SDS011;30476;53.468;9.826;2023-02-15T03:22:11;23.50;;;12.80;;
44165;SDS011;30476;53.468;9.826;2023-02-15T03:24:38;20.60;;;13.70;;
44165;SDS011;30476;53.468;9.826;2023-02-15T03:27:16;33.40;;;13.77;;
44165;SDS011;30476;53.468;9.826;2023-02-15T03:30:03;25.53;;;13.37;;
44165;SDS011;30476;53.468;9.826;2023-02-15T03:32:32;25.17;;;14.20;;
44165;SDS011;30476;53.468;9.826;2023-02-15T03:35:00;19.23;;;13.17;;
44165;SDS011;30476;53.468;9.826;2023-02-15T03:40:00;19.10;;;13.20;;
44165;SDS011;30476;53.468;9.826;2023-02-15T03:42:58;27.50;;;15.20;;
44165;SDS011;30476;53.468;9.826;2023-02-15T03:45:29;23.73;;;14.53;;
44165;SDS011;30476;53.468;9.826;2023-02-15T03:47:58;24.80;;;14.20;;
44165;SDS011;30476;53.468;9.826;2023-02-15T03:50:27;25.40;;;14.10;;
44165;SDS011;30476;53.468;9.826;2023-02-15T03:53:15;18.63;;;12.53;;
44165;SDS011;30476;53.468;9.826;2023-02-15T03:55:54;21.00;;;13.40;;
44165;SDS011;30476;53.468;9.826;2023-02-15T03:58:21;22.07;;;13.87;;
44165;SDS011;30476;53.468;9.826;2023-02-15T04:01:10;21.27;;;12.43;;
44165;SDS011;30476;53.468;9.826;2023-02-15T04:04:09;20.90;;;13.03;;
44165;SDS011;30476;53.468;9.826;2023-02-15T04:06:42;18.93;;;11.87;;
44165;SDS011;30476;53.468;9.826;2023-02-15T04:09:07;15.03;;;11.23;;
44165;SDS011;30476;53.468;9.826;2023-02-15T04:11:52;17.10;;;11.77;;
44165;SDS011;30476;53.468;9.826;2023-02-15T04:14:18;20.73;;;12.90;;
44165;SDS011;30476;53.468;9.826;2023-02-15T04:17:05;17.27;;;11.83;;
44165;SDS011;30476;53.468;9.826;2023-02-15T04:19:32;17.33;;;11.93;;
44165;SDS011;30476;53.468;9.826;2023-02-15T04:22:16;17.50;;;11.20;;
44165;SDS011;30476;53.468;9.826;2023-02-15T04:25:01;18.37;;;11.70;;
44165;SDS011;30476;53.468;9.826;2023-02-15T04:27:39;16.27;;;11.17;;
44165;SDS011;30476;53.468;9.826;2023-02-15T04:30:07;16.43;;;10.90;;
44165;SDS011;30476;53.468;9.826;2023-02-15T04:32:34;15.80;;;10.23;;
44165;SDS011;30476;53.468;9.826;2023-02-15T04:35:00;18.33;;;12.60;;
44165;SDS011;30476;53.468;9.826;2023-02-15T04:37:26;16.53;;;10.90;;
44165;SDS011;30476;53.468;9.826;2023-02-15T04:39:51;17.23;;;11.53;;
44165;SDS011;30476;53.468;9.826;2023-02-15T04:42:17;15.63;;;10.43;;
44165;SDS011;30476;53.468;9.826;2023-02-15T04:44:43;16.00;;;10.27;;
44165;SDS011;30476;53.468;9.826;2023-02-15T04:47:09;16.73;;;11.80;;
44165;SDS011;30476;53.468;9.826;2023-02-15T04:49:35;16.00;;;10.50;;
44165;SDS011;30476;53.468;9.826;2023-02-15T04:52:01;16.10;;;12.13;;
44165;SDS011;30476;53.468;9.826;2023-02-15T04:54:27;14.63;;;9.83;;
44165;SDS011;30476;53.468;9.826;2023-02-15T04:56:52;18.90;;;12.70;;
44165;SDS011;30476;53.468;9.826;2023-02-15T04:59:18;14.73;;;11.00;;
44165;SDS011;30476;53.468;9.826;2023-02-15T05:01:44;14.80;;;10.30;;
44165;SDS011;30476;53.468;9.826;2023-02-15T05:04:10;18.73;;;11.90;;
44165;SDS011;30476;53.468;9.826;2023-02-15T05:06:36;15.97;;;10.23;;
44165;SDS011;30476;53.468;9.826;2023-02-15T05:09:01;18.80;;;12.37;;
44165;SDS011;30476;53.468;9.826;2023-02-15T05:11:27;17.10;;;11.70;;
44165;SDS011;30476;53.468;9.826;2023-02-15T05:13:53;17.00;;;10.20;;
44165;SDS011;30476;53.468;9.826;2023-02-15T05:16:19;16.90;;;11.73;;
44165;SDS011;30476;53.468;9.826;2023-02-15T05:18:45;21.27;;;12.23;;
44165;SDS011;30476;53.468;9.826;2023-02-15T05:21:11;21.43;;;12.30;;
44165;SDS011;30476;53.468;9.826;2023-02-15T05:23:38;19.20;;;11.40;;
44165;SDS011;30476;53.468;9.826;2023-02-15T05:26:04;17.67;;;10.97;;
44165;SDS011;30476;53.468;9.826;2023-02-15T05:28:49;20.70;;;13.97;;
44165;SDS011;30476;53.468;9.826;2023-02-15T05:31:16;20.50;;;13.20;;
44165;SDS011;30476;53.468;9.826;2023-02-15T05:33:43;17.00;;;11.60;;
44165;SDS011;30476;53.468;9.826;2023-02-15T05:36:10;19.40;;;12.03;;
44165;SDS011;30476;53.468;9.826;2023-02-15T05:38:36;19.33;;;12.83;;
44165;SDS011;30476;53.468;9.826;2023-02-15T05:41:04;20.13;;;12.00;;
44165;SDS011;30476;53.468;9.826;2023-02-15T05:43:30;18.77;;;11.77;;
44165;SDS011;30476;53.468;9.826;2023-02-15T05:45:57;20.07;;;12.27;;
44165;SDS011;30476;53.468;9.826;2023-02-15T05:48:23;19.03;;;12.07;;
44165;SDS011;30476;53.468;9.826;2023-02-15T05:51:01;23.47;;;18.97;;
44165;SDS011;30476;53.468;9.826;2023-02-15T05:53:36;22.23;;;17.00;;
44165;SDS011;30476;53.468;9.826;2023-02-15T05:56:03;21.13;;;15.10;;
44165;SDS011;30476;53.468;9.826;2023-02-15T05:58:31;21.83;;;15.57;;
44165;SDS011;30476;53.468;9.826;2023-02-15T06:00:58;18.50;;;12.73;;
44165;SDS011;30476;53.468;9.826;2023-02-15T06:03:24;18.23;;;12.53;;
44165;SDS011;30476;53.468;9.826;2023-02-15T06:05:51;23.70;;;12.40;;
44165;SDS011;30476;53.468;9.826;2023-02-15T06:08:18;20.93;;;11.60;;
44165;SDS011;30476;53.468;9.826;2023-02-15T06:10:46;18.67;;;13.73;;
44165;SDS011;30476;53.468;9.826;2023-02-15T06:13:13;18.70;;;12.13;;
44165;SDS011;30476;53.468;9.826;2023-02-15T06:15:39;18.37;;;12.50;;
44165;SDS011;30476;53.468;9.826;2023-02-15T06:18:04;18.00;;;11.83;;
44165;SDS011;30476;53.468;9.826;2023-02-15T06:20:30;21.00;;;14.07;;
44165;SDS011;30476;53.468;9.826;2023-02-15T06:22:56;19.13;;;12.07;;
44165;SDS011;30476;53.468;9.826;2023-02-15T06:25:21;18.03;;;12.00;;
44165;SDS011;30476;53.468;9.826;2023-02-15T06:27:47;16.00;;;10.60;;
44165;SDS011;30476;53.468;9.826;2023-02-15T06:30:14;18.27;;;12.10;;
44165;SDS011;30476;53.468;9.826;2023-02-15T06:32:40;18.27;;;13.20;;
44165;SDS011;30476;53.468;9.826;2023-02-15T06:35:06;15.87;;;10.40;;
44165;SDS011;30476;53.468;9.826;2023-02-15T06:37:32;17.77;;;13.07;;
44165;SDS011;30476;53.468;9.826;2023-02-15T06:39:58;16.57;;;11.07;;
44165;SDS011;30476;53.468;9.826;2023-02-15T06:42:24;18.03;;;11.50;;
44165;SDS011;30476;53.468;9.826;2023-02-15T06:44:50;17.00;;;11.47;;
44165;SDS011;30476;53.468;9.826;2023-02-15T06:47:16;17.03;;;12.17;;
44165;SDS011;30476;53.468;9.826;2023-02-15T06:49:41;14.60;;;11.30;;
44165;SDS011;30476;53.468;9.826;2023-02-15T06:52:07;16.93;;;11.77;;
44165;SDS011;30476;53.468;9.826;2023-02-15T06:54:34;16.00;;;11.00;;
44165;SDS011;30476;53.468;9.826;2023-02-15T06:57:00;17.20;;;12.00;;
44165;SDS011;30476;53.468;9.826;2023-02-15T06:59:25;15.23;;;11.30;;
44165;SDS011;30476;53.468;9.826;2023-02-15T07:01:51;16.10;;;11.50;;
44165;SDS011;30476;53.468;9.826;2023-02-15T07:04:16;14.67;;;10.10;;
44165;SDS011;30476;53.468;9.826;2023-02-15T07:06:42;19.60;;;11.70;;
44165;SDS011;30476;53.468;9.826;2023-02-15T07:09:08;19.30;;;11.90;;
44165;SDS011;30476;53.468;9.826;2023-02-15T07:11:34;20.37;;;12.80;;
44165;SDS011;30476;53.468;9.826;2023-02-15T07:14:19;17.00;;;11.53;;
44165;SDS011;30476;53.468;9.826;2023-02-15T07:16:45;18.70;;;12.70;;
44165;SDS011;30476;53.468;9.826;2023-02-15T07:19:11;19.60;;;12.27;;
44165;SDS011;30476;53.468;9.826;2023-02-15T07:21:36;17.20;;;10.40;;
44165;SDS011;30476;53.468;9.826;2023-02-15T07:24:02;23.17;;;13.90;;
44165;SDS011;30476;53.468;9.826;2023-02-15T07:26:30;20.00;;;12.33;;
44165;SDS011;30476;53.468;9.826;2023-02-15T07:28:57;16.97;;;12.77;;
44165;SDS011;30476;53.468;9.826;2023-02-15T07:31:23;41.73;;;23.43;;
44165;SDS011;30476;53.468;9.826;2023-02-15T07:33:48;143.80;;;66.00;;
44165;SDS011;30476;53.468;9.826;2023-02-15T07:36:14;95.57;;;47.53;;
44165;SDS011;30476;53.468;9.826;2023-02-15T07:38:41;44.20;;;26.57;;
44165;SDS011;30476;53.468;9.826;2023-02-15T07:41:08;32.53;;;18.37;;
44165;SDS011;30476;53.468;9.826;2023-02-15T07:43:37;17.77;;;12.40;;
44165;SDS011;30476;53.468;9.826;2023-02-15T07:46:06;19.70;;;13.30;;
44165;SDS011;30476;53.468;9.826;2023-02-15T07:48:34;21.13;;;13.30;;
44165;SDS011;30476;53.468;9.826;2023-02-15T07:51:01;15.17;;;11.33;;
44165;SDS011;30476;53.468;9.826;2023-02-15T07:53:29;19.37;;;12.60;;
44165;SDS011;30476;53.468;9.826;2023-02-15T07:56:05;15.67;;;11.20;;
44165;SDS011;30476;53.468;9.826;2023-02-15T07:58:34;18.90;;;12.50;;
44165;SDS011;30476;53.468;9.826;2023-02-15T08:01:29;16.73;;;11.13;;
44165;SDS011;30476;53.468;9.826;2023-02-15T08:03:56;18.27;;;12.13;;
44165;SDS011;30476;53.468;9.826;2023-02-15T08:06:24;17.83;;;12.20;;
44165;SDS011;30476;53.468;9.826;2023-02-15T08:08:51;21.83;;;13.73;;
44165;SDS011;30476;53.468;9.826;2023-02-15T08:14:06;18.63;;;12.87;;
44165;SDS011;30476;53.468;9.826;2023-02-15T08:16:40;17.73;;;11.87;;
44165;SDS011;30476;53.468;9.826;2023-02-15T08:21:47;18.57;;;12.90;;
44165;SDS011;30476;53.468;9.826;2023-02-15T08:24:16;14.07;;;11.10;;
44165;SDS011;30476;53.468;9.826;2023-02-15T08:26:44;17.30;;;11.23;;
44165;SDS011;30476;53.468;9.826;2023-02-15T08:29:12;16.00;;;11.73;;
44165;SDS011;30476;53.468;9.826;2023-02-15T08:31:42;18.40;;;12.10;;
44165;SDS011;30476;53.468;9.826;2023-02-15T08:34:09;16.83;;;12.80;;
44165;SDS011;30476;53.468;9.826;2023-02-15T08:36:38;19.17;;;11.80;;
44165;SDS011;30476;53.468;9.826;2023-02-15T08:39:04;17.90;;;13.40;;
44165;SDS011;30476;53.468;9.826;2023-02-15T08:41:34;18.23;;;13.80;;
44165;SDS011;30476;53.468;9.826;2023-02-15T08:44:02;23.07;;;14.80;;
44165;SDS011;30476;53.468;9.826;2023-02-15T08:46:31;25.03;;;16.63;;
44165;SDS011;30476;53.468;9.826;2023-02-15T08:48:58;22.20;;;14.43;;
44165;SDS011;30476;53.468;9.826;2023-02-15T08:51:26;19.70;;;14.20;;
44165;SDS011;30476;53.468;9.826;2023-02-15T08:53:55;34.40;;;22.87;;
44165;SDS011;30476;53.468;9.826;2023-02-15T08:56:26;31.63;;;16.43;;
44165;SDS011;30476;53.468;9.826;2023-02-15T08:58:53;21.73;;;16.20;;
44165;SDS011;30476;53.468;9.826;2023-02-15T09:01:21;21.00;;;15.83;;
44165;SDS011;30476;53.468;9.826;2023-02-15T09:03:49;20.10;;;14.80;;
44165;SDS011;30476;53.468;9.826;2023-02-15T09:06:19;20.43;;;13.97;;
44165;SDS011;30476;53.468;9.826;2023-02-15T09:08:47;19.47;;;14.00;;
44165;SDS011;30476;53.468;9.826;2023-02-15T09:11:14;18.90;;;13.53;;
44165;SDS011;30476;53.468;9.826;2023-02-15T09:13:47;19.53;;;14.03;;
44165;SDS011;30476;53.468;9.826;2023-02-15T09:16:22;18.00;;;14.00;;
44165;SDS011;30476;53.468;9.826;2023-02-15T09:18:49;20.17;;;13.80;;
44165;SDS011;30476;53.468;9.826;2023-02-15T09:21:17;21.87;;;15.80;;
44165;SDS011;30476;53.468;9.826;2023-02-15T09:23:46;19.70;;;15.13;;
44165;SDS011;30476;53.468;9.826;2023-02-15T09:26:13;24.17;;;16.13;;
44165;SDS011;30476;53.468;9.826;2023-02-15T09:28:41;16.37;;;13.47;;
44165;SDS011;30476;53.468;9.826;2023-02-15T09:31:09;18.70;;;15.03;;
44165;SDS011;30476;53.468;9.826;2023-02-15T09:33:43;19.07;;;14.73;;
44165;SDS011;30476;53.468;9.826;2023-02-15T09:38:54;23.97;;;15.40;;
44165;SDS011;30476;53.468;9.826;2023-02-15T10:14:57;23.27;;;15.50;;
44165;SDS011;30476;53.468;9.826;2023-02-15T10:20:29;20.90;;;15.37;;
44165;SDS011;30476;53.468;9.826;2023-02-15T10:25:49;21.90;;;16.17;;
44165;SDS011;30476;53.468;9.826;2023-02-15T10:28:38;22.43;;;16.30;;
44165;SDS011;30476;53.468;9.826;2023-02-15T10:31:28;22.67;;;15.83;;
44165;SDS011;30476;53.468;9.826;2023-02-15T10:34:19;22.10;;;16.30;;
44165;SDS011;30476;53.468;9.826;2023-02-15T10:37:01;22.17;;;16.43;;
44165;SDS011;30476;53.468;9.826;2023-02-15T10:50:55;23.87;;;17.40;;
44165;SDS011;30476;53.468;9.826;2023-02-15T10:56:33;18.40;;;15.80;;
44165;SDS011;30476;53.468;9.826;2023-02-15T11:02:14;19.70;;;15.27;;
44165;SDS011;30476;53.468;9.826;2023-02-15T11:05:00;23.83;;;16.67;;
44165;SDS011;30476;53.468;9.826;2023-02-15T11:07:47;19.17;;;15.33;;
44165;SDS011;30476;53.468;9.826;2023-02-15T11:10:22;23.10;;;16.60;;
44165;SDS011;30476;53.468;9.826;2023-02-15T11:12:56;19.90;;;15.67;;
44165;SDS011;30476;53.468;9.826;2023-02-15T11:15:26;18.10;;;14.43;;
44165;SDS011;30476;53.468;9.826;2023-02-15T11:21:01;19.23;;;16.10;;
44165;SDS011;30476;53.468;9.826;2023-02-15T11:23:48;19.60;;;15.97;;
44165;SDS011;30476;53.468;9.826;2023-02-15T11:27:00;20.30;;;17.53;;
44165;SDS011;30476;53.468;9.826;2023-02-15T11:29:21;21.70;;;17.27;;
44165;SDS011;30476;53.468;9.826;2023-02-15T11:31:54;22.97;;;17.33;;
44165;SDS011;30476;53.468;9.826;2023-02-15T11:34:35;20.03;;;17.83;;
44165;SDS011;30476;53.468;9.826;2023-02-15T11:37:06;21.63;;;17.37;;
44165;SDS011;30476;53.468;9.826;2023-02-15T11:39:35;19.23;;;17.00;;
44165;SDS011;30476;53.468;9.826;2023-02-15T11:42:02;22.80;;;16.57;;
44165;SDS011;30476;53.468;9.826;2023-02-15T11:44:35;22.33;;;17.10;;
44165;SDS011;30476;53.468;9.826;2023-02-15T11:47:10;19.53;;;17.10;;
44165;SDS011;30476;53.468;9.826;2023-02-15T11:49:36;22.50;;;18.67;;
44165;SDS011;30476;53.468;9.826;2023-02-15T11:52:07;22.73;;;18.10;;
44165;SDS011;30476;53.468;9.826;2023-02-15T11:54:40;23.37;;;19.20;;
44165;SDS011;30476;53.468;9.826;2023-02-15T12:00:14;24.97;;;20.03;;
44165;SDS011;30476;53.468;9.826;2023-02-15T12:02:49;22.90;;;20.00;;
44165;SDS011;30476;53.468;9.826;2023-02-15T12:05:19;26.40;;;19.60;;
44165;SDS011;30476;53.468;9.826;2023-02-15T12:08:00;25.17;;;18.30;;
44165;SDS011;30476;53.468;9.826;2023-02-15T12:10:50;20.80;;;18.50;;
44165;SDS011;30476;53.468;9.826;2023-02-15T12:13:21;21.40;;;18.97;;
44165;SDS011;30476;53.468;9.826;2023-02-15T12:15:48;20.47;;;18.27;;
44165;SDS011;30476;53.468;9.826;2023-02-15T12:18:20;23.43;;;19.10;;
44165;SDS011;30476;53.468;9.826;2023-02-15T12:20:46;26.83;;;20.53;;
44165;SDS011;30476;53.468;9.826;2023-02-15T12:23:14;23.60;;;20.00;;
44165;SDS011;30476;53.468;9.826;2023-02-15T12:25:50;27.77;;;22.20;;
44165;SDS011;30476;53.468;9.826;2023-02-15T12:28:41;23.07;;;19.93;;
44165;SDS011;30476;53.468;9.826;2023-02-15T12:31:20;23.20;;;20.10;;
44165;SDS011;30476;53.468;9.826;2023-02-15T12:33:48;25.57;;;19.30;;
44165;SDS011;30476;53.468;9.826;2023-02-15T12:36:21;27.00;;;22.93;;
44165;SDS011;30476;53.468;9.826;2023-02-15T12:39:01;24.80;;;21.50;;
44165;SDS011;30476;53.468;9.826;2023-02-15T12:41:29;28.80;;;24.87;;
44165;SDS011;30476;53.468;9.826;2023-02-15T12:44:06;26.10;;;23.20;;
44165;SDS011;30476;53.468;9.826;2023-02-15T12:46:40;26.40;;;23.03;;
44165;SDS011;30476;53.468;9.826;2023-02-15T12:57:02;25.70;;;22.90;;
44165;SDS011;30476;53.468;9.826;2023-02-15T13:02:28;27.10;;;23.13;;
44165;SDS011;30476;53.468;9.826;2023-02-15T13:04:55;27.13;;;22.70;;
44165;SDS011;30476;53.468;9.826;2023-02-15T13:07:23;30.03;;;22.93;;
44165;SDS011;30476;53.468;9.826;2023-02-15T13:09:54;28.57;;;23.77;;
44165;SDS011;30476;53.468;9.826;2023-02-15T13:12:21;26.00;;;23.20;;
44165;SDS011;30476;53.468;9.826;2023-02-15T13:14:52;28.47;;;22.90;;
44165;SDS011;30476;53.468;9.826;2023-02-15T13:17:26;26.07;;;23.27;;
44165;SDS011;30476;53.468;9.826;2023-02-15T13:20:05;28.47;;;23.63;;
44165;SDS011;30476;53.468;9.826;2023-02-15T13:22:42;25.70;;;22.77;;
44165;SDS011;30476;53.468;9.826;2023-02-15T13:25:13;25.13;;;22.40;;
44165;SDS011;30476;53.468;9.826;2023-02-15T13:27:45;25.40;;;22.20;;
44165;SDS011;30476;53.468;9.826;2023-02-15T13:30:16;26.77;;;22.73;;
44165;SDS011;30476;53.468;9.826;2023-02-15T13:33:08;26.60;;;23.23;;
44165;SDS011;30476;53.468;9.826;2023-02-15T13:35:43;26.37;;;22.53;;
44165;SDS011;30476;53.468;9.826;2023-02-15T13:39:01;26.40;;;23.63;;
44165;SDS011;30476;53.468;9.826;2023-02-15T13:41:16;28.70;;;23.80;;
44165;SDS011;30476;53.468;9.826;2023-02-15T13:43:56;28.27;;;23.77;;
44165;SDS011;30476;53.468;9.826;2023-02-15T13:46:59;28.47;;;23.93;;
44165;SDS011;30476;53.468;9.826;2023-02-15T13:49:46;29.67;;;23.83;;
44165;SDS011;30476;53.468;9.826;2023-02-15T13:52:29;28.10;;;24.27;;
44165;SDS011;30476;53.468;9.826;2023-02-15T13:55:20;25.97;;;22.80;;
44165;SDS011;30476;53.468;9.826;2023-02-15T14:01:08;31.40;;;24.87;;
44165;SDS011;30476;53.468;9.826;2023-02-15T14:03:48;27.97;;;23.17;;
44165;SDS011;30476;53.468;9.826;2023-02-15T14:09:36;29.23;;;24.53;;
44165;SDS011;30476;53.468;9.826;2023-02-15T14:12:43;29.90;;;24.07;;
44165;SDS011;30476;53.468;9.826;2023-02-15T14:15:32;36.30;;;27.27;;
44165;SDS011;30476;53.468;9.826;2023-02-15T14:24:00;27.30;;;24.27;;
44165;SDS011;30476;53.468;9.826;2023-02-15T14:26:35;30.27;;;23.27;;
44165;SDS011;30476;53.468;9.826;2023-02-15T14:29:37;30.97;;;23.77;;
44165;SDS011;30476;53.468;9.826;2023-02-15T14:32:10;28.23;;;24.00;;
44165;SDS011;30476;53.468;9.826;2023-02-15T14:34:52;28.67;;;23.00;;
44165;SDS011;30476;53.468;9.826;2023-02-15T14:37:34;29.93;;;24.00;;
44165;SDS011;30476;53.468;9.826;2023-02-15T14:49:17;27.93;;;22.80;;
44165;SDS011;30476;53.468;9.826;2023-02-15T14:56:45;24.67;;;19.50;;
44165;SDS011;30476;53.468;9.826;2023-02-15T14:59:13;21.10;;;18.50;;
44165;SDS011;30476;53.468;9.826;2023-02-15T15:01:41;24.63;;;18.97;;
44165;SDS011;30476;53.468;9.826;2023-02-15T15:04:35;20.60;;;18.43;;
44165;SDS011;30476;53.468;9.826;2023-02-15T15:07:20;25.17;;;19.80;;
44165;SDS011;30476;53.468;9.826;2023-02-15T15:10:02;24.30;;;20.80;;
44165;SDS011;30476;53.468;9.826;2023-02-15T15:12:41;24.47;;;19.37;;
44165;SDS011;30476;53.468;9.826;2023-02-15T15:15:11;22.57;;;19.40;;
44165;SDS011;30476;53.468;9.826;2023-02-15T15:20:05;23.83;;;20.03;;
44165;SDS011;30476;53.468;9.826;2023-02-15T15:22:38;31.40;;;25.70;;
44165;SDS011;30476;53.468;9.826;2023-02-15T15:43:34;24.43;;;20.40;;
44165;SDS011;30476;53.468;9.826;2023-02-15T15:46:10;24.80;;;20.00;;
44165;SDS011;30476;53.468;9.826;2023-02-15T15:48:52;21.90;;;18.80;;
44165;SDS011;30476;53.468;9.826;2023-02-15T15:51:18;25.10;;;19.63;;
44165;SDS011;30476;53.468;9.826;2023-02-15T15:53:47;25.43;;;19.23;;
44165;SDS011;30476;53.468;9.826;2023-02-15T15:56:24;24.70;;;18.87;;
44165;SDS011;30476;53.468;9.826;2023-02-15T15:58:56;24.80;;;19.17;;
44165;SDS011;30476;53.468;9.826;2023-02-15T16:01:34;21.27;;;17.73;;
44165;SDS011;30476;53.468;9.826;2023-02-15T16:04:04;25.63;;;19.50;;
44165;SDS011;30476;53.468;9.826;2023-02-15T16:06:32;24.90;;;19.00;;
44165;SDS011;30476;53.468;9.826;2023-02-15T16:09:09;23.70;;;18.00;;
44165;SDS011;30476;53.468;9.826;2023-02-15T16:11:40;21.70;;;18.80;;
44165;SDS011;30476;53.468;9.826;2023-02-15T16:14:11;28.10;;;18.77;;
44165;SDS011;30476;53.468;9.826;2023-02-15T16:16:45;21.40;;;17.63;;
44165;SDS011;30476;53.468;9.826;2023-02-15T16:19:20;26.37;;;18.63;;
44165;SDS011;30476;53.468;9.826;2023-02-15T16:21:51;22.47;;;16.93;;
44165;SDS011;30476;53.468;9.826;2023-02-15T16:24:22;21.07;;;17.40;;
44165;SDS011;30476;53.468;9.826;2023-02-15T16:29:38;23.77;;;18.50;;
44165;SDS011;30476;53.468;9.826;2023-02-15T16:32:05;25.17;;;18.70;;
44165;SDS011;30476;53.468;9.826;2023-02-15T16:35:01;18.60;;;16.60;;
44165;SDS011;30476;53.468;9.826;2023-02-15T16:37:31;22.33;;;17.60;;
44165;SDS011;30476;53.468;9.826;2023-02-15T16:39:59;23.93;;;17.97;;
44165;SDS011;30476;53.468;9.826;2023-02-15T16:42:25;23.23;;;18.00;;
44165;SDS011;30476;53.468;9.826;2023-02-15T16:44:53;25.50;;;19.37;;
44165;SDS011;30476;53.468;9.826;2023-02-15T16:47:23;28.27;;;18.93;;
44165;SDS011;30476;53.468;9.826;2023-02-15T16:49:53;29.10;;;20.63;;
44165;SDS011;30476;53.468;9.826;2023-02-15T16:52:23;24.73;;;18.43;;
44165;SDS011;30476;53.468;9.826;2023-02-15T16:54:53;25.67;;;17.93;;
44165;SDS011;30476;53.468;9.826;2023-02-15T16:57:29;28.37;;;19.13;;
44165;SDS011;30476;53.468;9.826;2023-02-15T17:00:06;21.90;;;16.43;;
44165;SDS011;30476;53.468;9.826;2023-02-15T17:02:33;25.50;;;17.33;;
44165;SDS011;30476;53.468;9.826;2023-02-15T17:07:41;26.03;;;17.80;;
44165;SDS011;30476;53.468;9.826;2023-02-15T17:10:27;24.63;;;18.50;;
44165;SDS011;30476;53.468;9.826;2023-02-15T17:13:00;21.53;;;16.37;;
44165;SDS011;30476;53.468;9.826;2023-02-15T17:18:04;25.63;;;17.80;;
44165;SDS011;30476;53.468;9.826;2023-02-15T17:20:42;26.47;;;19.07;;
44165;SDS011;30476;53.468;9.826;2023-02-15T17:25:58;23.50;;;18.03;;
44165;SDS011;30476;53.468;9.826;2023-02-15T17:28:30;23.17;;;17.50;;